sensor_id;sensor_type;location;lat;lon;timestamp;pressure;altitude;pressure_sealevel;temperature;humidity
21520;BME280;10921;53.614;9.882;2023-09-12T00:00:21;101034.91;;;22.10;93.25
21520;BME280;10921;53.614;9.882;2023-09-12T00:02:50;101024.22;;;22.08;92.93
21520;BME280;10921;53.614;9.882;2023-09-12T00:05:17;101036.16;;;22.14;93.56
21520;BME280;10921;53.614;9.882;2023-09-12T00:07:44;101042.19;;;22.16;93.85
21520;BME280;10921;53.614;9.882;2023-09-12T00:10:10;101022.56;;;22.14;93.51
21520;BME280;10921;53.614;9.882;2023-09-12T00:12:37;100994.56;;;21.94;93.60
21520;BME280;10921;53.614;9.882;2023-09-12T00:15:04;101015.03;;;22.09;93.59
21520;BME280;10921;53.614;9.882;2023-09-12T00:17:30;101026.31;;;22.13;93.02
21520;BME280;10921;53.614;9.882;2023-09-12T00:19:57;101007.09;;;21.88;92.93
21520;BME280;10921;53.614;9.882;2023-09-12T00:22:24;101019.44;;;22.04;92.81
21520;BME280;10921;53.614;9.882;2023-09-12T00:24:50;101037.63;;;22.10;92.95
21520;BME280;10921;53.614;9.882;2023-09-12T00:27:16;101037.00;;;22.08;92.84
21520;BME280;10921;53.614;9.882;2023-09-12T00:29:43;101027.59;;;22.04;93.52
21520;BME280;10921;53.614;9.882;2023-09-12T00:32:09;101029.03;;;22.00;93.70
21520;BME280;10921;53.614;9.882;2023-09-12T00:34:36;100993.13;;;21.78;93.39
21520;BME280;10921;53.614;9.882;2023-09-12T00:37:04;101016.72;;;21.91;93.72
21520;BME280;10921;53.614;9.882;2023-09-12T00:39:31;100999.59;;;21.84;93.72
21520;BME280;10921;53.614;9.882;2023-09-12T00:41:58;101005.84;;;21.91;93.75
21520;BME280;10921;53.614;9.882;2023-09-12T00:44:24;100998.31;;;21.86;93.70
21520;BME280;10921;53.614;9.882;2023-09-12T00:46:52;100939.25;;;21.42;94.20
21520;BME280;10921;53.614;9.882;2023-09-12T00:49:21;100981.63;;;21.76;94.17
21520;BME280;10921;53.614;9.882;2023-09-12T00:51:49;100971.00;;;21.61;94.30
21520;BME280;10921;53.614;9.882;2023-09-12T00:54:17;101001.91;;;21.80;94.42
21520;BME280;10921;53.614;9.882;2023-09-12T00:56:44;100955.78;;;21.54;94.33
21520;BME280;10921;53.614;9.882;2023-09-12T00:59:12;100997.94;;;21.76;94.36
21520;BME280;10921;53.614;9.882;2023-09-12T01:01:39;100992.94;;;21.66;94.23
21520;BME280;10921;53.614;9.882;2023-09-12T01:04:06;101000.84;;;21.74;94.48
21520;BME280;10921;53.614;9.882;2023-09-12T01:06:45;100983.09;;;21.72;94.35
21520;BME280;10921;53.614;9.882;2023-09-12T01:09:14;100979.75;;;21.70;94.64
21520;BME280;10921;53.614;9.882;2023-09-12T01:11:41;100940.53;;;21.46;94.71
21520;BME280;10921;53.614;9.882;2023-09-12T01:14:07;100962.03;;;21.67;94.70
21520;BME280;10921;53.614;9.882;2023-09-12T01:16:34;100964.94;;;21.66;94.75
21520;BME280;10921;53.614;9.882;2023-09-12T01:19:01;100960.75;;;21.63;94.62
21520;BME280;10921;53.614;9.882;2023-09-12T01:21:46;100939.88;;;21.57;95.93
21520;BME280;10921;53.614;9.882;2023-09-12T01:29:53;100925.06;;;21.53;95.10
21520;BME280;10921;53.614;9.882;2023-09-12T01:32:21;100896.88;;;21.41;94.75
21520;BME280;10921;53.614;9.882;2023-09-12T01:34:47;100918.19;;;21.51;94.92
21520;BME280;10921;53.614;9.882;2023-09-12T01:37:14;100916.69;;;21.55;95.11
21520;BME280;10921;53.614;9.882;2023-09-12T01:39:41;100816.75;;;20.99;95.33
21520;BME280;10921;53.614;9.882;2023-09-12T01:42:14;100892.09;;;21.36;96.37
21520;BME280;10921;53.614;9.882;2023-09-12T01:44:45;100863.53;;;21.21;96.20
21520;BME280;10921;53.614;9.882;2023-09-12T01:47:13;100916.94;;;21.53;95.88
21520;BME280;10921;53.614;9.882;2023-09-12T01:49:43;100889.81;;;21.33;96.05
21520;BME280;10921;53.614;9.882;2023-09-12T01:52:11;100965.81;;;21.53;96.09
21520;BME280;10921;53.614;9.882;2023-09-12T01:54:41;100951.59;;;21.51;96.62
21520;BME280;10921;53.614;9.882;2023-09-12T01:57:08;100963.09;;;21.53;96.33
21520;BME280;10921;53.614;9.882;2023-09-12T01:59:36;100943.22;;;21.39;96.49
21520;BME280;10921;53.614;9.882;2023-09-12T02:02:02;100929.88;;;21.25;96.63
21520;BME280;10921;53.614;9.882;2023-09-12T02:04:29;100970.81;;;21.50;96.84
21520;BME280;10921;53.614;9.882;2023-09-12T02:06:55;100972.03;;;21.40;96.95
21520;BME280;10921;53.614;9.882;2023-09-12T02:09:22;100915.66;;;21.10;97.20
21520;BME280;10921;53.614;9.882;2023-09-12T02:11:49;100993.16;;;21.52;97.37
21520;BME280;10921;53.614;9.882;2023-09-12T02:14:15;100985.84;;;21.52;97.31
21520;BME280;10921;53.614;9.882;2023-09-12T02:16:44;100970.38;;;21.53;97.48
21520;BME280;10921;53.614;9.882;2023-09-12T02:19:11;100992.13;;;21.53;97.54
21520;BME280;10921;53.614;9.882;2023-09-12T02:21:38;100992.94;;;21.53;97.49
21520;BME280;10921;53.614;9.882;2023-09-12T02:24:05;101001.94;;;21.54;97.77
21520;BME280;10921;53.614;9.882;2023-09-12T02:26:32;100991.06;;;21.54;97.72
21520;BME280;10921;53.614;9.882;2023-09-12T02:29:03;100931.56;;;21.19;97.92
21520;BME280;10921;53.614;9.882;2023-09-12T02:31:32;100996.28;;;21.49;97.37
21520;BME280;10921;53.614;9.882;2023-09-12T02:33:58;100948.88;;;21.31;97.47
21520;BME280;10921;53.614;9.882;2023-09-12T02:36:25;100978.31;;;21.48;97.35
21520;BME280;10921;53.614;9.882;2023-09-12T02:38:51;100988.34;;;21.47;97.39
21520;BME280;10921;53.614;9.882;2023-09-12T02:41:18;101040.34;;;21.57;97.27
21520;BME280;10921;53.614;9.882;2023-09-12T02:43:45;101008.59;;;21.58;97.42
21520;BME280;10921;53.614;9.882;2023-09-12T02:46:11;101003.16;;;21.58;97.53
21520;BME280;10921;53.614;9.882;2023-09-12T02:48:38;101010.25;;;21.59;97.71
21520;BME280;10921;53.614;9.882;2023-09-12T02:51:04;100994.19;;;21.51;97.55
21520;BME280;10921;53.614;9.882;2023-09-12T02:53:31;101006.94;;;21.50;97.87
21520;BME280;10921;53.614;9.882;2023-09-12T02:55:57;101051.22;;;21.64;98.04
21520;BME280;10921;53.614;9.882;2023-09-12T02:58:24;101027.41;;;21.66;98.18
21520;BME280;10921;53.614;9.882;2023-09-12T03:00:50;101017.16;;;21.61;98.43
21520;BME280;10921;53.614;9.882;2023-09-12T03:03:20;100948.28;;;21.23;98.28
21520;BME280;10921;53.614;9.882;2023-09-12T03:05:57;101026.13;;;21.75;99.27
21520;BME280;10921;53.614;9.882;2023-09-12T03:08:24;101028.00;;;21.74;98.00
21520;BME280;10921;53.614;9.882;2023-09-12T03:10:57;101036.56;;;21.78;99.11
21520;BME280;10921;53.614;9.882;2023-09-12T03:13:24;101038.25;;;21.79;98.29
21520;BME280;10921;53.614;9.882;2023-09-12T03:15:52;100998.38;;;21.53;98.13
21520;BME280;10921;53.614;9.882;2023-09-12T03:18:19;100986.06;;;21.51;98.03
21520;BME280;10921;53.614;9.882;2023-09-12T03:20:46;101019.66;;;21.76;98.06
21520;BME280;10921;53.614;9.882;2023-09-12T03:23:12;101033.03;;;21.84;98.01
21520;BME280;10921;53.614;9.882;2023-09-12T03:25:39;101022.97;;;21.85;98.02
21520;BME280;10921;53.614;9.882;2023-09-12T03:28:06;101023.81;;;21.85;98.07
21520;BME280;10921;53.614;9.882;2023-09-12T03:30:34;101014.63;;;21.86;97.99
21520;BME280;10921;53.614;9.882;2023-09-12T03:33:01;101013.56;;;21.87;97.87
21520;BME280;10921;53.614;9.882;2023-09-12T03:35:29;100992.69;;;21.74;97.78
21520;BME280;10921;53.614;9.882;2023-09-12T03:37:56;100997.50;;;21.79;97.71
21520;BME280;10921;53.614;9.882;2023-09-12T03:40:22;101002.06;;;21.85;97.81
21520;BME280;10921;53.614;9.882;2023-09-12T03:42:49;100998.94;;;21.88;97.98
21520;BME280;10921;53.614;9.882;2023-09-12T03:45:15;100958.25;;;21.62;97.69
21520;BME280;10921;53.614;9.882;2023-09-12T03:47:42;100992.69;;;21.88;97.77
21520;BME280;10921;53.614;9.882;2023-09-12T03:50:13;101011.91;;;21.86;97.89
21520;BME280;10921;53.614;9.882;2023-09-12T03:52:40;101005.66;;;21.79;97.94
21520;BME280;10921;53.614;9.882;2023-09-12T03:55:07;100992.94;;;21.66;97.99
21520;BME280;10921;53.614;9.882;2023-09-12T03:57:34;101002.72;;;21.81;98.16
21520;BME280;10921;53.614;9.882;2023-09-12T04:00:00;100954.91;;;21.40;98.34
21520;BME280;10921;53.614;9.882;2023-09-12T04:02:27;101002.09;;;21.72;98.52
21520;BME280;10921;53.614;9.882;2023-09-12T04:04:54;101008.59;;;21.77;98.80
21520;BME280;10921;53.614;9.882;2023-09-12T04:07:20;100995.63;;;21.73;98.77
21520;BME280;10921;53.614;9.882;2023-09-12T04:09:47;100965.81;;;21.53;99.09
21520;BME280;10921;53.614;9.882;2023-09-12T04:12:13;100993.94;;;21.72;99.30
21520;BME280;10921;53.614;9.882;2023-09-12T04:14:40;100996.03;;;21.70;99.51
21520;BME280;10921;53.614;9.882;2023-09-12T04:17:06;100991.06;;;21.67;99.83
21520;BME280;10921;53.614;9.882;2023-09-12T04:19:35;100979.78;;;21.63;99.67
21520;BME280;10921;53.614;9.882;2023-09-12T04:22:01;100994.19;;;21.64;100.00
21520;BME280;10921;53.614;9.882;2023-09-12T04:24:28;100955.16;;;21.38;100.00
21520;BME280;10921;53.614;9.882;2023-09-12T04:26:54;100994.81;;;21.59;100.00
21520;BME280;10921;53.614;9.882;2023-09-12T04:29:21;100997.94;;;21.56;100.00
21520;BME280;10921;53.614;9.882;2023-09-12T04:31:47;101000.84;;;21.55;100.00
21520;BME280;10921;53.614;9.882;2023-09-12T04:34:14;100965.38;;;21.36;100.00
21520;BME280;10921;53.614;9.882;2023-09-12T04:36:41;100994.19;;;21.51;100.00
21520;BME280;10921;53.614;9.882;2023-09-12T04:39:07;100982.50;;;21.50;100.00
21520;BME280;10921;53.614;9.882;2023-09-12T04:41:34;100987.09;;;21.50;100.00
21520;BME280;10921;53.614;9.882;2023-09-12T04:44:00;100987.31;;;21.48;100.00
21520;BME280;10921;53.614;9.882;2023-09-12T04:46:28;100984.38;;;21.43;100.00
21520;BME280;10921;53.614;9.882;2023-09-12T04:48:55;100943.63;;;21.17;100.00
21520;BME280;10921;53.614;9.882;2023-09-12T04:51:21;100964.75;;;21.34;100.00
21520;BME280;10921;53.614;9.882;2023-09-12T04:53:48;100976.22;;;21.43;100.00
21520;BME280;10921;53.614;9.882;2023-09-12T04:56:18;100971.00;;;21.48;100.00
21520;BME280;10921;53.614;9.882;2023-09-12T04:58:45;100968.28;;;21.48;100.00
21520;BME280;10921;53.614;9.882;2023-09-12T05:01:11;100971.63;;;21.44;100.00
21520;BME280;10921;53.614;9.882;2023-09-12T05:03:38;100979.78;;;21.44;100.00
21520;BME280;10921;53.614;9.882;2023-09-12T05:06:04;100967.25;;;21.42;100.00
21520;BME280;10921;53.614;9.882;2023-09-12T05:08:31;100972.88;;;21.41;100.00
21520;BME280;10921;53.614;9.882;2023-09-12T05:10:57;100989.59;;;21.45;100.00
21520;BME280;10921;53.614;9.882;2023-09-12T05:13:24;100997.94;;;21.43;100.00
21520;BME280;10921;53.614;9.882;2023-09-12T05:15:50;100978.75;;;21.31;100.00
21520;BME280;10921;53.614;9.882;2023-09-12T05:18:17;101006.09;;;21.43;100.00
21520;BME280;10921;53.614;9.882;2023-09-12T05:20:43;100988.13;;;21.42;100.00
21520;BME280;10921;53.614;9.882;2023-09-12T05:23:10;100994.38;;;21.42;100.00
21520;BME280;10921;53.614;9.882;2023-09-12T05:25:37;100986.66;;;21.39;100.00
21520;BME280;10921;53.614;9.882;2023-09-12T05:28:04;100995.88;;;21.38;100.00
21520;BME280;10921;53.614;9.882;2023-09-12T05:30:31;101014.44;;;21.41;100.00
21520;BME280;10921;53.614;9.882;2023-09-12T05:32:57;100994.38;;;21.42;100.00
21520;BME280;10921;53.614;9.882;2023-09-12T05:35:24;101009.00;;;21.41;100.00
21520;BME280;10921;53.614;9.882;2023-09-12T05:37:51;101014.88;;;21.38;100.00
21520;BME280;10921;53.614;9.882;2023-09-12T05:40:18;101020.91;;;21.40;100.00
21520;BME280;10921;53.614;9.882;2023-09-12T05:42:45;101029.06;;;21.40;100.00
21520;BME280;10921;53.614;9.882;2023-09-12T05:45:11;101028.22;;;21.40;100.00
21520;BME280;10921;53.614;9.882;2023-09-12T05:47:38;101030.94;;;21.40;100.00
21520;BME280;10921;53.614;9.882;2023-09-12T05:50:05;101036.16;;;21.35;100.00
21520;BME280;10921;53.614;9.882;2023-09-12T05:52:33;101043.91;;;21.38;100.00
21520;BME280;10921;53.614;9.882;2023-09-12T05:55:00;101020.09;;;21.33;100.00
21520;BME280;10921;53.614;9.882;2023-09-12T05:57:26;101030.09;;;21.39;100.00
21520;BME280;10921;53.614;9.882;2023-09-12T05:59:53;101042.63;;;21.40;100.00
21520;BME280;10921;53.614;9.882;2023-09-12T06:02:19;101019.66;;;21.30;100.00
21520;BME280;10921;53.614;9.882;2023-09-12T06:04:46;100999.00;;;21.22;100.00
21520;BME280;10921;53.614;9.882;2023-09-12T06:07:13;101036.56;;;21.45;100.00
21520;BME280;10921;53.614;9.882;2023-09-12T06:09:40;101019.88;;;21.41;100.00
21520;BME280;10921;53.614;9.882;2023-09-12T06:12:06;101023.22;;;21.50;100.00
21520;BME280;10921;53.614;9.882;2023-09-12T06:14:33;101011.97;;;21.53;100.00
21520;BME280;10921;53.614;9.882;2023-09-12T06:16:59;100997.31;;;21.54;100.00
21520;BME280;10921;53.614;9.882;2023-09-12T06:19:26;100937.63;;;21.21;100.00
21520;BME280;10921;53.614;9.882;2023-09-12T06:21:53;101016.34;;;21.67;100.00
21520;BME280;10921;53.614;9.882;2023-09-12T06:24:20;101019.44;;;21.71;100.00
21520;BME280;10921;53.614;9.882;2023-09-12T06:26:50;101015.25;;;21.75;100.00
21520;BME280;10921;53.614;9.882;2023-09-12T06:29:17;101026.97;;;21.82;100.00
21520;BME280;10921;53.614;9.882;2023-09-12T06:31:44;101033.84;;;21.85;100.00
21520;BME280;10921;53.614;9.882;2023-09-12T06:34:10;101017.34;;;21.80;100.00
21520;BME280;10921;53.614;9.882;2023-09-12T06:36:38;101008.38;;;21.72;100.00
21520;BME280;10921;53.614;9.882;2023-09-12T06:39:05;101030.50;;;21.89;100.00
21520;BME280;10921;53.614;9.882;2023-09-12T06:41:32;101041.38;;;21.89;100.00
21520;BME280;10921;53.614;9.882;2023-09-12T06:43:58;101046.81;;;21.89;100.00
21520;BME280;10921;53.614;9.882;2023-09-12T06:46:26;101050.34;;;21.90;100.00
21520;BME280;10921;53.614;9.882;2023-09-12T06:48:52;101030.91;;;21.86;100.00
21520;BME280;10921;53.614;9.882;2023-09-12T06:51:23;101044.91;;;21.90;100.00
21520;BME280;10921;53.614;9.882;2023-09-12T06:53:55;101034.69;;;21.85;100.00
21520;BME280;10921;53.614;9.882;2023-09-12T06:56:21;101048.47;;;21.90;100.00
21520;BME280;10921;53.614;9.882;2023-09-12T06:58:48;101045.56;;;21.92;100.00
21520;BME280;10921;53.614;9.882;2023-09-12T07:01:15;101057.03;;;21.94;100.00
21520;BME280;10921;53.614;9.882;2023-09-12T07:03:41;101063.09;;;21.96;100.00
21520;BME280;10921;53.614;9.882;2023-09-12T07:06:08;101059.34;;;21.97;100.00
21520;BME280;10921;53.614;9.882;2023-09-12T07:08:35;101054.53;;;21.99;100.00
21520;BME280;10921;53.614;9.882;2023-09-12T07:11:04;101065.00;;;22.02;100.00
21520;BME280;10921;53.614;9.882;2023-09-12T07:13:32;101056.81;;;22.22;100.00
21520;BME280;10921;53.614;9.882;2023-09-12T07:15:59;101041.59;;;22.07;100.00
21520;BME280;10921;53.614;9.882;2023-09-12T07:18:26;101045.34;;;22.13;100.00
21520;BME280;10921;53.614;9.882;2023-09-12T07:21:03;101038.66;;;22.09;100.00
21520;BME280;10921;53.614;9.882;2023-09-12T07:23:30;101054.31;;;22.20;100.00
21520;BME280;10921;53.614;9.882;2023-09-12T07:25:57;101033.44;;;22.01;100.00
21520;BME280;10921;53.614;9.882;2023-09-12T07:28:24;101064.97;;;22.22;100.00
21520;BME280;10921;53.614;9.882;2023-09-12T07:30:51;101066.63;;;22.23;100.00
21520;BME280;10921;53.614;9.882;2023-09-12T07:33:18;101054.94;;;22.22;100.00
21520;BME280;10921;53.614;9.882;2023-09-12T07:35:45;101060.56;;;22.27;100.00
21520;BME280;10921;53.614;9.882;2023-09-12T07:38:13;101054.09;;;22.28;100.00
21520;BME280;10921;53.614;9.882;2023-09-12T07:40:42;101027.38;;;22.12;100.00
21520;BME280;10921;53.614;9.882;2023-09-12T07:43:09;101039.22;;;22.31;100.00
21520;BME280;10921;53.614;9.882;2023-09-12T07:45:35;101034.03;;;22.29;100.00
21520;BME280;10921;53.614;9.882;2023-09-12T07:48:07;101030.00;;;22.38;100.00
21520;BME280;10921;53.614;9.882;2023-09-12T07:50:34;101036.69;;;22.42;100.00
21520;BME280;10921;53.614;9.882;2023-09-12T07:53:01;101033.97;;;22.42;100.00
21520;BME280;10921;53.614;9.882;2023-09-12T07:55:27;101039.16;;;22.51;100.00
21520;BME280;10921;53.614;9.882;2023-09-12T07:57:57;101012.63;;;22.39;100.00
21520;BME280;10921;53.614;9.882;2023-09-12T08:00:24;101032.25;;;22.55;100.00
21520;BME280;10921;53.614;9.882;2023-09-12T08:02:50;100986.13;;;22.28;100.00
21520;BME280;10921;53.614;9.882;2023-09-12T08:05:17;100994.03;;;22.43;100.00
21520;BME280;10921;53.614;9.882;2023-09-12T08:07:48;101026.34;;;22.64;100.00
21520;BME280;10921;53.614;9.882;2023-09-12T08:10:14;101053.06;;;22.87;100.00
21520;BME280;10921;53.614;9.882;2023-09-12T08:12:41;101034.06;;;22.74;99.90
21520;BME280;10921;53.614;9.882;2023-09-12T08:15:09;101074.53;;;23.02;100.00
21520;BME280;10921;53.614;9.882;2023-09-12T08:17:38;101092.50;;;23.09;99.97
21520;BME280;10921;53.614;9.882;2023-09-12T08:20:12;101018.59;;;22.68;97.90
21520;BME280;10921;53.614;9.882;2023-09-12T08:22:41;101022.13;;;22.75;98.00
21520;BME280;10921;53.614;9.882;2023-09-12T08:25:08;101094.91;;;23.24;96.63
21520;BME280;10921;53.614;9.882;2023-09-12T08:27:39;101037.72;;;22.93;95.96
21520;BME280;10921;53.614;9.882;2023-09-12T08:30:06;101051.53;;;22.98;94.00
21520;BME280;10921;53.614;9.882;2023-09-12T08:32:33;101059.44;;;23.06;92.87
21520;BME280;10921;53.614;9.882;2023-09-12T08:35:00;101053.34;;;23.10;93.96
21520;BME280;10921;53.614;9.882;2023-09-12T08:37:27;100894.59;;;22.16;93.61
21520;BME280;10921;53.614;9.882;2023-09-12T08:39:56;100866.22;;;22.05;91.46
21520;BME280;10921;53.614;9.882;2023-09-12T08:42:26;101029.84;;;23.16;91.29
21520;BME280;10921;53.614;9.882;2023-09-12T08:44:56;101008.50;;;23.13;92.52
21520;BME280;10921;53.614;9.882;2023-09-12T08:47:23;101106.75;;;23.74;91.53
21520;BME280;10921;53.614;9.882;2023-09-12T08:49:52;100910.06;;;22.60;89.31
21520;BME280;10921;53.614;9.882;2023-09-12T08:52:19;101096.81;;;23.87;87.37
21520;BME280;10921;53.614;9.882;2023-09-12T08:54:46;101048.09;;;23.72;87.85
21520;BME280;10921;53.614;9.882;2023-09-12T08:57:13;101024.69;;;23.64;86.16
21520;BME280;10921;53.614;9.882;2023-09-12T08:59:40;101037.91;;;23.85;85.81
21520;BME280;10921;53.614;9.882;2023-09-12T09:02:10;101033.25;;;23.93;85.55
21520;BME280;10921;53.614;9.882;2023-09-12T09:04:39;101115.88;;;24.54;82.63
21520;BME280;10921;53.614;9.882;2023-09-12T09:07:06;101073.38;;;24.47;82.32
21520;BME280;10921;53.614;9.882;2023-09-12T09:09:35;101085.13;;;24.66;81.31
21520;BME280;10921;53.614;9.882;2023-09-12T09:12:07;101048.19;;;24.63;80.75
21520;BME280;10921;53.614;9.882;2023-09-12T09:14:34;101069.34;;;24.86;79.61
21520;BME280;10921;53.614;9.882;2023-09-12T09:17:00;100941.69;;;24.22;78.34
21520;BME280;10921;53.614;9.882;2023-09-12T09:19:40;101055.19;;;25.07;79.58
21520;BME280;10921;53.614;9.882;2023-09-12T09:22:11;100932.75;;;24.51;77.11
21520;BME280;10921;53.614;9.882;2023-09-12T09:24:38;100930.63;;;24.53;74.40
21520;BME280;10921;53.614;9.882;2023-09-12T09:27:05;100768.31;;;23.54;72.92
21520;BME280;10921;53.614;9.882;2023-09-12T09:29:32;101034.38;;;25.36;73.69
21520;BME280;10921;53.614;9.882;2023-09-12T09:32:17;101114.00;;;25.93;73.89
21520;BME280;10921;53.614;9.882;2023-09-12T09:34:44;101067.22;;;25.59;73.07
21520;BME280;10921;53.614;9.882;2023-09-12T09:37:11;101070.63;;;25.43;73.03
21520;BME280;10921;53.614;9.882;2023-09-12T09:39:38;101077.41;;;25.52;72.89
21520;BME280;10921;53.614;9.882;2023-09-12T09:42:10;101119.81;;;25.85;73.85
21520;BME280;10921;53.614;9.882;2023-09-12T09:44:37;101073.00;;;25.51;72.52
21520;BME280;10921;53.614;9.882;2023-09-12T09:47:04;100915.13;;;24.35;73.09
21520;BME280;10921;53.614;9.882;2023-09-12T09:49:33;101113.69;;;25.59;73.16
21520;BME280;10921;53.614;9.882;2023-09-12T09:52:03;101099.16;;;25.47;74.16
21520;BME280;10921;53.614;9.882;2023-09-12T09:54:43;100980.59;;;24.65;74.71
21520;BME280;10921;53.614;9.882;2023-09-12T09:57:10;101065.00;;;25.27;73.73
21520;BME280;10921;53.614;9.882;2023-09-12T09:59:36;101067.13;;;25.24;73.43
21520;BME280;10921;53.614;9.882;2023-09-12T10:02:05;101093.41;;;25.37;74.20
21520;BME280;10921;53.614;9.882;2023-09-12T10:04:36;101121.84;;;25.48;74.01
21520;BME280;10921;53.614;9.882;2023-09-12T10:07:07;101055.78;;;25.09;73.57
21520;BME280;10921;53.614;9.882;2023-09-12T10:09:38;101083.19;;;25.33;73.10
21520;BME280;10921;53.614;9.882;2023-09-12T10:12:06;101130.31;;;25.58;73.00
21520;BME280;10921;53.614;9.882;2023-09-12T10:14:33;101145.91;;;25.69;72.71
21520;BME280;10921;53.614;9.882;2023-09-12T10:17:02;101113.31;;;25.56;73.60
21520;BME280;10921;53.614;9.882;2023-09-12T10:19:38;101143.69;;;25.78;73.49
21520;BME280;10921;53.614;9.882;2023-09-12T10:22:14;100956.16;;;24.59;71.24
21520;BME280;10921;53.614;9.882;2023-09-12T10:24:45;101155.81;;;25.82;71.05
21520;BME280;10921;53.614;9.882;2023-09-12T10:27:13;101105.41;;;25.36;71.25
21520;BME280;10921;53.614;9.882;2023-09-12T10:29:40;101167.09;;;25.74;70.77
21520;BME280;10921;53.614;9.882;2023-09-12T10:32:08;100767.78;;;23.09;70.27
21520;BME280;10921;53.614;9.882;2023-09-12T10:34:36;100889.53;;;24.00;70.84
21520;BME280;10921;53.614;9.882;2023-09-12T10:37:04;100713.94;;;23.11;70.51
21520;BME280;10921;53.614;9.882;2023-09-12T10:39:34;101040.13;;;25.05;71.31
21520;BME280;10921;53.614;9.882;2023-09-12T10:42:04;101048.56;;;25.03;72.04
21520;BME280;10921;53.614;9.882;2023-09-12T10:44:30;100850.88;;;23.73;71.56
21520;BME280;10921;53.614;9.882;2023-09-12T10:46:58;100990.47;;;24.30;72.87
21520;BME280;10921;53.614;9.882;2023-09-12T10:49:28;101051.13;;;24.80;72.65
21520;BME280;10921;53.614;9.882;2023-09-12T10:51:55;100933.53;;;24.03;73.11
21520;BME280;10921;53.614;9.882;2023-09-12T10:54:35;100893.94;;;23.39;73.76
21520;BME280;10921;53.614;9.882;2023-09-12T10:57:08;100900.31;;;23.33;74.29
21520;BME280;10921;53.614;9.882;2023-09-12T11:02:38;101004.41;;;24.22;74.59
21520;BME280;10921;53.614;9.882;2023-09-12T11:05:07;100985.69;;;24.07;74.87
21520;BME280;10921;53.614;9.882;2023-09-12T11:07:58;100681.94;;;21.89;75.66
21520;BME280;10921;53.614;9.882;2023-09-12T11:10:26;100700.00;;;22.15;75.86
21520;BME280;10921;53.614;9.882;2023-09-12T11:12:54;100853.72;;;22.98;75.76
21520;BME280;10921;53.614;9.882;2023-09-12T11:15:25;101135.75;;;24.80;76.71
21520;BME280;10921;53.614;9.882;2023-09-12T11:18:06;101123.53;;;24.82;77.03
21520;BME280;10921;53.614;9.882;2023-09-12T11:20:51;101127.47;;;24.86;77.27
21520;BME280;10921;53.614;9.882;2023-09-12T11:23:21;101107.31;;;24.69;76.72
21520;BME280;10921;53.614;9.882;2023-09-12T11:26:02;100970.69;;;23.79;77.59
21520;BME280;10921;53.614;9.882;2023-09-12T11:28:31;100900.06;;;23.10;77.58
21520;BME280;10921;53.614;9.882;2023-09-12T11:30:58;101056.25;;;24.40;77.12
21520;BME280;10921;53.614;9.882;2023-09-12T11:33:25;100946.19;;;23.30;77.08
21520;BME280;10921;53.614;9.882;2023-09-12T11:35:53;100740.25;;;22.24;77.21
21520;BME280;10921;53.614;9.882;2023-09-12T11:38:28;101169.94;;;24.82;78.01
21520;BME280;10921;53.614;9.882;2023-09-12T11:40:57;100875.31;;;22.93;77.21
21520;BME280;10921;53.614;9.882;2023-09-12T11:43:25;100977.38;;;23.59;77.53
21520;BME280;10921;53.614;9.882;2023-09-12T11:45:54;100624.38;;;21.49;76.25
21520;BME280;10921;53.614;9.882;2023-09-12T11:48:21;101118.28;;;24.44;77.37
21520;BME280;10921;53.614;9.882;2023-09-12T11:50:53;101021.97;;;24.07;78.51
21520;BME280;10921;53.614;9.882;2023-09-12T11:53:22;101087.94;;;24.41;77.95
21520;BME280;10921;53.614;9.882;2023-09-12T11:55:55;101128.78;;;24.66;78.17
21520;BME280;10921;53.614;9.882;2023-09-12T11:58:24;101101.34;;;24.42;78.67
21520;BME280;10921;53.614;9.882;2023-09-12T12:00:56;100970.66;;;23.61;78.50
21520;BME280;10921;53.614;9.882;2023-09-12T12:03:25;100727.63;;;22.12;78.37
21520;BME280;10921;53.614;9.882;2023-09-12T12:05:54;101096.00;;;24.29;79.24
21520;BME280;10921;53.614;9.882;2023-09-12T12:08:22;101076.06;;;24.10;80.09
21520;BME280;10921;53.614;9.882;2023-09-12T12:10:52;101071.03;;;24.07;80.84
21520;BME280;10921;53.614;9.882;2023-09-12T12:13:20;101137.16;;;24.28;81.00
21520;BME280;10921;53.614;9.882;2023-09-12T12:15:47;101106.41;;;24.14;82.19
21520;BME280;10921;53.614;9.882;2023-09-12T12:18:15;101019.53;;;23.56;83.18
21520;BME280;10921;53.614;9.882;2023-09-12T12:20:42;100917.00;;;22.87;83.70
21520;BME280;10921;53.614;9.882;2023-09-12T12:25:36;101096.31;;;23.96;85.46
21520;BME280;10921;53.614;9.882;2023-09-12T12:28:03;101078.69;;;23.74;86.70
21520;BME280;10921;53.614;9.882;2023-09-12T12:30:35;101033.56;;;23.53;86.92
21520;BME280;10921;53.614;9.882;2023-09-12T12:33:07;101054.56;;;23.77;87.51
21520;BME280;10921;53.614;9.882;2023-09-12T12:36:04;101084.34;;;23.97;87.17
21520;BME280;10921;53.614;9.882;2023-09-12T12:38:34;101090.03;;;23.96;86.10
21520;BME280;10921;53.614;9.882;2023-09-12T12:41:13;101091.00;;;24.01;86.59
21520;BME280;10921;53.614;9.882;2023-09-12T12:43:42;101043.00;;;23.82;86.73
21520;BME280;10921;53.614;9.882;2023-09-12T12:46:11;100905.44;;;22.92;84.89
21520;BME280;10921;53.614;9.882;2023-09-12T12:48:43;100887.69;;;23.14;85.96
21520;BME280;10921;53.614;9.882;2023-09-12T12:51:23;100665.34;;;21.72;85.86
21520;BME280;10921;53.614;9.882;2023-09-12T12:53:53;101065.34;;;24.52;84.83
21520;BME280;10921;53.614;9.882;2023-09-12T12:56:22;100820.84;;;23.00;86.03
21520;BME280;10921;53.614;9.882;2023-09-12T12:58:56;101111.66;;;24.59;84.63
21520;BME280;10921;53.614;9.882;2023-09-12T13:01:24;101033.06;;;24.49;84.11
21520;BME280;10921;53.614;9.882;2023-09-12T13:03:51;100761.44;;;23.15;83.80